createdAt,value
2019-05-04T00:00:49.756Z,0.00
2019-05-04T00:01:49.747Z,0.00
2019-05-04T00:02:49.735Z,0.00
2019-05-04T00:03:49.731Z,0.00
2019-05-04T00:04:49.720Z,0.00
2019-05-04T00:05:49.713Z,0.00
2019-05-04T00:06:50.930Z,0.00
2019-05-04T00:07:49.702Z,0.00
2019-05-04T00:08:49.690Z,0.00
2019-05-04T00:09:49.685Z,0.00
2019-05-04T00:10:49.675Z,0.00
2019-05-04T00:11:49.666Z,0.00
2019-05-04T00:12:49.665Z,0.00
2019-05-04T00:13:49.655Z,0.00
2019-05-04T00:14:49.644Z,0.00
2019-05-04T00:15:49.638Z,0.00
2019-05-04T00:16:49.628Z,0.00
2019-05-04T00:17:49.620Z,0.00
2019-05-04T00:18:49.616Z,0.00
2019-05-04T00:19:49.610Z,0.00
2019-05-04T00:20:53.142Z,0.00
2019-05-04T00:21:49.593Z,0.00
2019-05-04T00:22:49.579Z,0.00
2019-05-04T00:23:49.580Z,0.00
2019-05-04T00:24:49.563Z,0.00
2019-05-04T00:25:49.629Z,0.00
2019-05-04T00:26:49.555Z,0.00
2019-05-04T00:27:49.548Z,0.00
2019-05-04T00:28:49.536Z,0.00
2019-05-04T00:29:49.526Z,0.00
2019-05-04T00:30:49.525Z,0.00
2019-05-04T00:31:49.517Z,0.00
2019-05-04T00:32:49.508Z,0.00
2019-05-04T00:33:49.499Z,0.00
2019-05-04T00:34:49.489Z,0.00
2019-05-04T00:35:49.479Z,0.00
2019-05-04T00:37:01.193Z,0.00
2019-05-04T00:37:49.466Z,0.00
2019-05-04T00:38:49.462Z,0.00
2019-05-04T00:39:49.452Z,0.00
2019-05-04T00:40:49.445Z,0.00
2019-05-04T00:41:49.435Z,0.00
2019-05-04T00:42:49.425Z,0.00
2019-05-04T00:43:49.426Z,0.00
2019-05-04T00:44:49.415Z,0.00
2019-05-04T00:45:49.412Z,0.00
2019-05-04T00:46:49.394Z,0.00
2019-05-04T00:47:49.389Z,0.00
2019-05-04T00:48:49.386Z,0.00
2019-05-04T00:49:49.369Z,0.00
2019-05-04T00:50:49.366Z,0.00
2019-05-04T00:51:49.358Z,0.00
2019-05-04T00:52:49.353Z,0.00
2019-05-04T00:53:49.346Z,0.00
2019-05-04T00:54:49.327Z,0.00
2019-05-04T00:55:49.327Z,0.00
2019-05-04T00:56:49.315Z,0.00
2019-05-04T00:57:49.307Z,0.00
2019-05-04T00:58:49.303Z,0.00
2019-05-04T00:59:49.307Z,0.00
2019-05-04T01:00:49.282Z,0.00
2019-05-04T01:01:49.274Z,0.00
2019-05-04T01:02:49.270Z,0.00
2019-05-04T01:03:49.264Z,0.00
2019-05-04T01:04:49.256Z,0.00
2019-05-04T01:05:49.246Z,0.00
2019-05-04T01:06:49.231Z,0.00
2019-05-04T01:07:49.227Z,0.00
2019-05-04T01:08:49.219Z,0.00
2019-05-04T01:09:49.207Z,0.00
2019-05-04T01:10:49.203Z,0.00
2019-05-04T01:11:49.196Z,0.00
2019-05-04T01:12:49.186Z,0.00
2019-05-04T01:13:49.177Z,0.00
2019-05-04T01:14:49.168Z,0.00
2019-05-04T01:15:49.161Z,0.00
2019-05-04T01:16:49.152Z,0.00
2019-05-04T01:17:49.143Z,0.00
2019-05-04T01:18:49.131Z,0.00
2019-05-04T01:19:49.122Z,0.00
2019-05-04T01:20:49.116Z,0.00
2019-05-04T01:21:49.106Z,0.00
2019-05-04T01:22:49.098Z,0.00
2019-05-04T01:23:49.090Z,0.00
2019-05-04T01:24:49.081Z,0.00
2019-05-04T01:25:49.075Z,0.00
2019-05-04T01:26:49.062Z,0.00
2019-05-04T01:27:49.051Z,0.00
2019-05-04T01:28:49.043Z,0.00
2019-05-04T01:29:49.033Z,0.00
2019-05-04T01:30:49.031Z,0.00
2019-05-04T01:31:49.020Z,0.00
2019-05-04T01:32:49.015Z,0.00
2019-05-04T01:33:48.997Z,0.00
2019-05-04T01:34:48.993Z,0.00
2019-05-04T01:35:48.981Z,0.00
2019-05-04T01:36:48.975Z,0.00
2019-05-04T01:37:48.966Z,0.00
2019-05-04T01:38:48.962Z,0.00
2019-05-04T01:39:48.948Z,0.00
2019-05-04T01:40:50.509Z,0.00
2019-05-04T01:41:48.925Z,0.00
2019-05-04T01:42:48.924Z,0.00
2019-05-04T01:43:48.913Z,0.00
2019-05-04T01:44:48.902Z,0.00
2019-05-04T01:45:48.888Z,0.00
2019-05-04T01:46:48.882Z,0.00
2019-05-04T01:47:48.873Z,0.00
2019-05-04T01:48:48.866Z,0.00
2019-05-04T01:49:48.856Z,0.00
2019-05-04T01:50:48.843Z,0.00
2019-05-04T01:51:48.838Z,0.00
2019-05-04T01:52:48.830Z,0.00
2019-05-04T01:53:48.819Z,0.00
2019-05-04T01:54:48.810Z,0.00
2019-05-04T01:55:48.801Z,0.00
2019-05-04T01:56:48.793Z,0.00
2019-05-04T01:57:48.783Z,0.00
2019-05-04T01:58:48.770Z,0.00
2019-05-04T01:59:48.759Z,0.00
2019-05-04T02:00:48.757Z,0.00
2019-05-04T02:01:48.741Z,0.00
2019-05-04T02:02:48.735Z,0.00
2019-05-04T02:03:48.727Z,0.00
2019-05-04T02:04:51.355Z,0.00
2019-05-04T02:05:48.706Z,0.00
2019-05-04T02:06:48.698Z,0.00
2019-05-04T02:07:48.688Z,0.00
2019-05-04T02:08:48.679Z,0.00
2019-05-04T02:09:48.668Z,0.00
2019-05-04T02:10:48.656Z,0.00
2019-05-04T02:11:48.647Z,0.00
2019-05-04T02:12:48.639Z,0.00
2019-05-04T02:13:48.629Z,0.00
2019-05-04T02:14:50.525Z,0.00
2019-05-04T02:15:48.611Z,0.00
2019-05-04T02:16:48.602Z,0.00
2019-05-04T02:17:48.591Z,0.00
2019-05-04T02:18:48.580Z,0.00
2019-05-04T02:19:48.573Z,0.00
2019-05-04T02:20:48.562Z,0.00
2019-05-04T02:21:48.553Z,0.00
2019-05-04T02:22:48.539Z,0.00
2019-05-04T02:23:48.534Z,0.00
2019-05-04T02:24:48.529Z,0.00
2019-05-04T02:25:48.515Z,0.00
2019-05-04T02:26:48.507Z,0.00
2019-05-04T02:27:48.499Z,0.00
2019-05-04T02:28:48.487Z,0.00
2019-05-04T02:29:48.477Z,0.00
2019-05-04T02:30:48.469Z,0.00
2019-05-04T02:31:48.452Z,0.00
2019-05-04T02:32:48.452Z,0.00
2019-05-04T02:33:48.434Z,0.00
2019-05-04T02:34:48.428Z,0.00
2019-05-04T02:35:48.432Z,0.00
2019-05-04T02:36:48.398Z,0.00
2019-05-04T02:38:04.376Z,0.00
2019-05-04T02:38:48.393Z,0.00
2019-05-04T02:39:48.378Z,0.00
2019-05-04T02:40:53.558Z,0.00
2019-05-04T02:41:48.357Z,0.00
2019-05-04T02:42:48.342Z,0.00
2019-05-04T02:43:48.339Z,0.00
2019-05-04T02:44:48.323Z,0.00
2019-05-04T02:45:48.317Z,0.00
2019-05-04T02:46:48.311Z,0.00
2019-05-04T02:47:48.298Z,0.00
2019-05-04T02:48:48.287Z,0.00
2019-05-04T02:49:48.277Z,0.00
2019-05-04T02:50:48.269Z,0.00
2019-05-04T02:51:48.252Z,0.00
2019-05-04T02:52:48.248Z,0.00
2019-05-04T02:53:48.245Z,0.00
2019-05-04T02:54:48.255Z,0.00
2019-05-04T02:55:48.212Z,0.00
2019-05-04T02:56:48.201Z,0.00
2019-05-04T02:57:48.192Z,0.00
2019-05-04T02:58:48.186Z,0.00
2019-05-04T02:59:48.176Z,0.00
2019-05-04T03:00:48.166Z,0.00
2019-05-04T03:01:48.164Z,0.00
2019-05-04T03:02:48.142Z,0.00
2019-05-04T03:03:48.133Z,0.00
2019-05-04T03:04:48.133Z,0.00
2019-05-04T03:05:48.110Z,0.00
2019-05-04T03:06:48.102Z,0.00
2019-05-04T03:07:48.095Z,0.00
2019-05-04T03:08:48.080Z,0.00
2019-05-04T03:09:48.067Z,0.00
2019-05-04T03:10:48.061Z,0.00
2019-05-04T03:11:48.055Z,0.00
2019-05-04T03:12:48.042Z,0.00
2019-05-04T03:13:48.031Z,0.00
2019-05-04T03:14:48.017Z,0.00
2019-05-04T03:15:48.007Z,0.00
2019-05-04T03:16:50.476Z,0.00
2019-05-04T03:17:47.984Z,0.00
2019-05-04T03:18:47.979Z,0.00
2019-05-04T03:19:47.969Z,0.00
2019-05-04T03:20:47.969Z,0.00
2019-05-04T03:21:47.974Z,0.00
2019-05-04T03:22:47.944Z,0.00
2019-05-04T03:23:47.922Z,0.00
2019-05-04T03:24:47.915Z,0.00
2019-05-04T03:25:47.917Z,0.00
2019-05-04T03:26:47.894Z,0.00
2019-05-04T03:27:47.882Z,0.00
2019-05-04T03:28:47.871Z,0.00
2019-05-04T03:29:47.872Z,0.00
2019-05-04T03:30:48.829Z,0.00
2019-05-04T03:31:48.190Z,0.00
2019-05-04T03:32:48.241Z,0.00
2019-05-04T03:33:48.969Z,0.00
2019-05-04T03:35:08.794Z,0.00
2019-05-04T03:35:59.197Z,0.00
2019-05-04T03:36:49.264Z,0.00
2019-05-04T03:37:47.778Z,0.00
2019-05-04T03:38:53.899Z,0.00
2019-05-04T03:39:47.760Z,0.00
2019-05-04T03:40:47.778Z,0.00
2019-05-04T03:41:47.737Z,0.00
2019-05-04T03:42:47.727Z,0.00
2019-05-04T03:43:47.720Z,0.00
2019-05-04T03:44:47.708Z,0.00
2019-05-04T03:45:47.696Z,0.00
2019-05-04T03:46:47.682Z,0.00
2019-05-04T03:47:49.558Z,0.00
2019-05-04T03:48:47.659Z,0.00
2019-05-04T03:49:47.655Z,0.00
2019-05-04T03:50:49.561Z,0.00
2019-05-04T03:51:47.634Z,0.00
2019-05-04T03:52:47.623Z,0.00
2019-05-04T03:53:47.612Z,0.00
2019-05-04T03:54:47.598Z,0.00
2019-05-04T03:55:47.587Z,0.00
2019-05-04T03:56:47.581Z,0.00
2019-05-04T03:57:47.569Z,0.00
2019-05-04T03:58:47.555Z,0.00
2019-05-04T03:59:47.545Z,0.00
2019-05-04T04:00:47.536Z,0.00
2019-05-04T04:01:47.526Z,0.00
2019-05-04T04:02:47.526Z,0.00
2019-05-04T04:03:47.502Z,0.00
2019-05-04T04:04:47.504Z,0.00
2019-05-04T04:05:47.489Z,0.00
2019-05-04T04:06:47.472Z,0.00
2019-05-04T04:07:47.461Z,0.00
2019-05-04T04:09:04.545Z,0.00
2019-05-04T04:09:50.572Z,0.00
2019-05-04T04:10:47.432Z,0.00
2019-05-04T04:11:49.071Z,0.00
2019-05-04T04:12:47.411Z,0.00
2019-05-04T04:13:47.399Z,0.00
2019-05-04T04:14:47.392Z,0.00
2019-05-04T04:15:47.392Z,0.00
2019-05-04T04:16:47.367Z,0.00
2019-05-04T04:17:47.362Z,0.00
2019-05-04T04:18:47.345Z,0.00
2019-05-04T04:19:47.334Z,0.00
2019-05-04T04:20:47.328Z,0.00
2019-05-04T04:21:47.315Z,0.00
2019-05-04T04:22:47.305Z,0.00
2019-05-04T04:23:47.304Z,0.00
2019-05-04T04:24:47.285Z,0.00
2019-05-04T04:25:47.274Z,0.00
2019-05-04T04:26:47.260Z,0.00
2019-05-04T04:27:47.248Z,0.00
2019-05-04T04:28:47.243Z,0.00
2019-05-04T04:29:47.230Z,0.00
2019-05-04T04:30:47.238Z,0.00
2019-05-04T04:31:47.247Z,0.00
2019-05-04T04:32:47.201Z,0.00
2019-05-04T04:33:55.630Z,0.00
2019-05-04T04:34:47.178Z,0.00
2019-05-04T04:35:47.213Z,0.00
2019-05-04T04:36:47.161Z,0.00
2019-05-04T04:37:47.146Z,0.00
2019-05-04T04:38:47.137Z,5.63
2019-05-04T04:39:47.154Z,5.63
2019-05-04T04:40:47.112Z,5.63
2019-05-04T04:41:47.103Z,5.63
2019-05-04T04:42:47.098Z,5.63
2019-05-04T04:43:47.096Z,5.63
2019-05-04T04:44:47.070Z,5.63
2019-05-04T04:45:47.062Z,5.63
2019-05-04T04:46:47.053Z,5.63
2019-05-04T04:47:47.044Z,5.63
2019-05-04T04:48:47.226Z,5.63
2019-05-04T04:49:47.026Z,5.63
2019-05-04T04:50:47.007Z,5.63
2019-05-04T04:51:46.993Z,5.63
2019-05-04T04:52:46.986Z,5.63
2019-05-04T04:53:46.974Z,5.63
2019-05-04T04:54:50.500Z,5.63
2019-05-04T04:55:46.961Z,5.63
2019-05-04T04:56:46.945Z,5.63
2019-05-04T04:57:47.150Z,5.63
2019-05-04T04:58:46.921Z,5.63
2019-05-04T04:59:46.909Z,5.63
2019-05-04T05:00:46.906Z,5.63
2019-05-04T05:01:48.267Z,5.63
2019-05-04T05:02:50.018Z,5.63
2019-05-04T05:03:46.872Z,5.63
2019-05-04T05:04:46.858Z,11.25
2019-05-04T05:05:47.018Z,16.88
2019-05-04T05:06:46.887Z,16.88
2019-05-04T05:07:46.833Z,11.25
2019-05-04T05:08:46.819Z,11.25
2019-05-04T05:09:49.553Z,11.25
2019-05-04T05:10:46.800Z,11.25
2019-05-04T05:11:46.787Z,11.25
2019-05-04T05:12:46.780Z,16.88
2019-05-04T05:13:46.762Z,11.25
2019-05-04T05:14:46.755Z,11.25
2019-05-04T05:15:46.745Z,16.88
2019-05-04T05:16:46.732Z,22.50
2019-05-04T05:17:46.720Z,22.50
2019-05-04T05:18:46.714Z,22.50
2019-05-04T05:19:46.713Z,22.50
2019-05-04T05:20:46.695Z,22.50
2019-05-04T05:21:46.682Z,22.50
2019-05-04T05:22:46.668Z,33.75
2019-05-04T05:23:46.657Z,33.75
2019-05-04T05:24:46.648Z,33.75
2019-05-04T05:25:46.635Z,28.13
2019-05-04T05:26:46.631Z,28.13
2019-05-04T05:27:46.620Z,28.13
2019-05-04T05:28:46.614Z,28.13
2019-05-04T05:29:46.609Z,28.13
2019-05-04T05:30:46.585Z,28.13
2019-05-04T05:31:46.578Z,33.75
2019-05-04T05:32:46.570Z,33.75
2019-05-04T05:33:47.820Z,33.75
2019-05-04T05:34:46.545Z,33.75
2019-05-04T05:35:46.534Z,33.75
2019-05-04T05:36:46.539Z,33.75
2019-05-04T05:37:46.513Z,33.75
2019-05-04T05:38:46.510Z,39.38
2019-05-04T05:39:57.537Z,39.38
2019-05-04T05:40:46.488Z,39.38
2019-05-04T05:41:49.879Z,39.38
2019-05-04T05:42:46.464Z,39.38
2019-05-04T05:43:49.078Z,33.75
2019-05-04T05:44:46.446Z,39.38
2019-05-04T05:45:49.804Z,39.38
2019-05-04T05:46:46.426Z,45.00
2019-05-04T05:47:49.313Z,50.63
2019-05-04T05:48:46.408Z,50.63
2019-05-04T05:49:49.909Z,56.25
2019-05-04T05:50:46.391Z,56.25
2019-05-04T05:51:48.641Z,56.25
2019-05-04T05:52:46.366Z,56.25
2019-05-04T05:53:49.814Z,50.63
2019-05-04T05:54:46.343Z,50.63
2019-05-04T05:55:46.332Z,50.63
2019-05-04T05:56:46.323Z,50.63
2019-05-04T05:57:50.497Z,45.00
2019-05-04T05:58:46.307Z,45.00
2019-05-04T05:59:46.308Z,45.00
2019-05-04T06:00:49.105Z,45.00
2019-05-04T06:01:46.275Z,45.00
2019-05-04T06:02:51.669Z,50.63
2019-05-04T06:03:46.253Z,50.63
2019-05-04T06:04:51.802Z,56.25
2019-05-04T06:05:46.236Z,56.25
2019-05-04T06:06:50.669Z,56.25
2019-05-04T06:07:46.216Z,56.25
2019-05-04T06:08:48.078Z,56.25
2019-05-04T06:09:46.193Z,61.88
2019-05-04T06:10:48.960Z,61.88
2019-05-04T06:11:46.180Z,61.88
2019-05-04T06:12:50.002Z,61.88
2019-05-04T06:13:46.158Z,61.88
2019-05-04T06:14:49.267Z,61.88
2019-05-04T06:15:46.134Z,61.88
2019-05-04T06:16:49.376Z,61.88
2019-05-04T06:17:47.271Z,61.88
2019-05-04T06:18:50.100Z,61.88
2019-05-04T06:19:46.102Z,61.88
2019-05-04T06:20:49.043Z,67.50
2019-05-04T06:21:46.074Z,73.13
2019-05-04T06:22:49.602Z,73.13
2019-05-04T06:23:46.058Z,73.13
2019-05-04T06:24:49.993Z,73.13
2019-05-04T06:25:48.060Z,73.13
2019-05-04T06:26:46.025Z,73.13
2019-05-04T06:27:48.543Z,67.50
2019-05-04T06:28:46.005Z,67.50
2019-05-04T06:29:48.211Z,67.50
2019-05-04T06:30:45.990Z,67.50
2019-05-04T06:31:48.633Z,67.50
2019-05-04T06:32:45.970Z,67.50
2019-05-04T06:33:51.852Z,67.50
2019-05-04T06:34:45.946Z,67.50
2019-05-04T06:35:47.615Z,73.13
2019-05-04T06:36:49.203Z,78.75
2019-05-04T06:37:45.920Z,84.38
2019-05-04T06:38:49.969Z,90.00
2019-05-04T06:39:45.898Z,95.63
2019-05-04T06:40:52.742Z,95.63
2019-05-04T06:41:45.881Z,101.25
2019-05-04T06:42:49.555Z,106.88
2019-05-04T06:43:55.625Z,106.88
2019-05-04T06:44:52.872Z,106.88
2019-05-04T06:45:49.539Z,106.88
2019-05-04T06:46:45.829Z,112.50
2019-05-04T06:47:52.064Z,106.88
2019-05-04T06:48:45.809Z,95.63
2019-05-04T06:50:02.155Z,90.00
2019-05-04T06:50:45.797Z,90.00
2019-05-04T06:51:47.855Z,78.75
2019-05-04T06:52:45.774Z,78.75
2019-05-04T06:53:52.330Z,78.75
2019-05-04T06:54:51.987Z,78.75
2019-05-04T06:55:49.224Z,78.75
2019-05-04T06:56:45.741Z,78.75
2019-05-04T06:57:46.937Z,67.50
2019-05-04T06:58:50.219Z,61.88
2019-05-04T06:59:45.706Z,61.88
2019-05-04T07:00:45.713Z,56.25
2019-05-04T07:01:46.304Z,56.25
2019-05-04T07:02:47.629Z,56.25
2019-05-04T07:03:49.393Z,56.25
2019-05-04T07:04:45.665Z,61.88
2019-05-04T07:05:49.799Z,61.88
2019-05-04T07:06:45.643Z,73.13
2019-05-04T07:07:45.630Z,73.13
2019-05-04T07:08:49.327Z,73.13
2019-05-04T07:09:48.916Z,73.13
2019-05-04T07:11:06.425Z,95.63
2019-05-04T07:12:04.039Z,106.88
2019-05-04T07:12:45.708Z,106.88
2019-05-04T07:13:45.576Z,95.63
2019-05-04T07:14:45.594Z,78.75
2019-05-04T07:15:49.885Z,78.75
2019-05-04T07:16:45.627Z,73.13
2019-05-04T07:17:49.141Z,67.50
2019-05-04T07:18:45.527Z,61.88
2019-05-04T07:19:45.518Z,67.50
2019-05-04T07:20:47.133Z,61.88
2019-05-04T07:21:49.614Z,56.25
2019-05-04T07:22:45.494Z,61.88
2019-05-04T07:23:49.695Z,67.50
2019-05-04T07:24:47.134Z,67.50
2019-05-04T07:25:49.453Z,67.50
2019-05-04T07:26:47.138Z,61.88
2019-05-04T07:27:48.938Z,78.75
2019-05-04T07:28:45.438Z,101.25
2019-05-04T07:29:52.439Z,101.25
2019-05-04T07:30:45.419Z,112.50
2019-05-04T07:31:49.424Z,118.13
2019-05-04T07:32:45.396Z,112.50
2019-05-04T07:33:47.661Z,123.75
2019-05-04T07:34:48.821Z,140.63
2019-05-04T07:35:45.374Z,140.63
2019-05-04T07:36:49.211Z,146.25
2019-05-04T07:37:47.241Z,146.25
2019-05-04T07:38:48.720Z,157.50
2019-05-04T07:39:46.633Z,151.88
2019-05-04T07:40:45.327Z,146.25
2019-05-04T07:41:50.967Z,123.75
2019-05-04T07:42:51.361Z,123.75
2019-05-04T07:43:45.507Z,135.00
2019-05-04T07:44:46.474Z,129.38
2019-05-04T07:45:45.279Z,146.25
2019-05-04T07:46:49.541Z,168.75
2019-05-04T07:47:45.270Z,151.88
2019-05-04T07:48:48.881Z,196.88
2019-05-04T07:49:45.247Z,208.13
2019-05-04T07:50:45.237Z,213.75
2019-05-04T07:51:47.048Z,225.00
2019-05-04T07:52:45.216Z,241.88
2019-05-04T07:53:48.945Z,230.63
2019-05-04T07:54:47.148Z,202.50
2019-05-04T07:55:45.193Z,168.75
2019-05-04T07:56:48.402Z,151.88
2019-05-04T07:57:45.172Z,140.63
2019-05-04T07:58:48.000Z,123.75
2019-05-04T07:59:45.480Z,123.75
2019-05-04T08:00:48.536Z,106.88
2019-05-04T08:01:51.447Z,95.63
2019-05-04T08:02:48.817Z,112.50
2019-05-04T08:03:45.639Z,112.50
2019-05-04T08:04:48.452Z,112.50
2019-05-04T08:05:48.252Z,140.63
2019-05-04T08:06:49.711Z,168.75
2019-05-04T08:07:45.088Z,174.38
2019-05-04T08:08:57.358Z,191.25
2019-05-04T08:09:49.037Z,180.00
2019-05-04T08:10:45.211Z,140.63
2019-05-04T08:11:48.786Z,129.38
2019-05-04T08:12:56.293Z,135.00
2019-05-04T08:13:45.315Z,140.63
2019-05-04T08:14:52.821Z,129.38
2019-05-04T08:15:45.025Z,140.63
2019-05-04T08:16:45.387Z,135.00
2019-05-04T08:17:45.283Z,140.63
2019-05-04T08:18:45.350Z,168.75
2019-05-04T08:19:44.992Z,151.88
2019-05-04T08:20:44.981Z,146.25
2019-05-04T08:21:44.967Z,146.25
2019-05-04T08:22:45.227Z,146.25
2019-05-04T08:23:44.958Z,118.13
2019-05-04T08:24:45.030Z,101.25
2019-05-04T08:25:48.687Z,95.63
2019-05-04T08:26:44.932Z,123.75
2019-05-04T08:27:45.391Z,112.50
2019-05-04T08:28:44.912Z,90.00
2019-05-04T08:29:45.212Z,101.25
2019-05-04T08:30:50.151Z,106.88
2019-05-04T08:31:44.892Z,123.75
2019-05-04T08:32:49.876Z,101.25
2019-05-04T08:33:45.201Z,90.00
2019-05-04T08:34:48.729Z,101.25
2019-05-04T08:35:44.854Z,101.25
2019-05-04T08:36:52.035Z,112.50
2019-05-04T08:37:45.002Z,106.88
2019-05-04T08:38:50.437Z,90.00
2019-05-04T08:39:46.664Z,73.13
2019-05-04T08:40:45.427Z,61.88
2019-05-04T08:41:46.012Z,61.88
2019-05-04T08:42:47.921Z,61.88
2019-05-04T08:43:45.650Z,50.63
2019-05-04T08:44:44.784Z,45.00
2019-05-04T08:45:44.773Z,39.38
2019-05-04T08:46:44.765Z,39.38
2019-05-04T08:47:49.261Z,39.38
2019-05-04T08:48:45.303Z,45.00
2019-05-04T08:49:45.220Z,45.00
2019-05-04T08:50:46.008Z,50.63
2019-05-04T08:52:01.460Z,50.63
2019-05-04T08:52:44.714Z,56.25
2019-05-04T08:53:44.762Z,73.13
2019-05-04T08:54:45.166Z,101.25
2019-05-04T08:55:44.690Z,129.38
2019-05-04T08:56:45.028Z,135.00
2019-05-04T08:57:45.321Z,146.25
2019-05-04T08:58:44.925Z,191.25
2019-05-04T08:59:49.090Z,258.75
2019-05-04T09:00:45.200Z,292.50
2019-05-04T09:01:46.215Z,292.50
2019-05-04T09:02:44.887Z,270.00
2019-05-04T09:03:45.046Z,241.88
2019-05-04T09:04:49.236Z,219.38
2019-05-04T09:06:08.018Z,202.50
2019-05-04T09:06:57.393Z,191.25
2019-05-04T09:07:57.212Z,140.63
2019-05-04T09:08:45.742Z,101.25
2019-05-04T09:09:45.242Z,73.13
2019-05-04T09:11:04.967Z,73.13
2019-05-04T09:11:45.097Z,56.25
2019-05-04T09:12:45.818Z,45.00
2019-05-04T09:13:50.246Z,50.63
2019-05-04T09:14:44.813Z,56.25
2019-05-04T09:15:44.939Z,61.88
2019-05-04T09:16:44.673Z,78.75
2019-05-04T09:17:45.471Z,129.38
2019-05-04T09:18:44.888Z,180.00
2019-05-04T09:19:48.938Z,185.63
2019-05-04T09:20:44.785Z,219.38
2019-05-04T09:21:45.460Z,253.13
2019-05-04T09:22:47.597Z,270.00
2019-05-04T09:23:44.460Z,275.63
2019-05-04T09:24:47.986Z,298.13
2019-05-04T09:25:45.103Z,292.50
2019-05-04T09:26:48.948Z,241.88
2019-05-04T09:27:45.562Z,225.00
2019-05-04T09:28:51.054Z,225.00
2019-05-04T09:29:44.772Z,253.13
2019-05-04T09:30:46.657Z,303.75
2019-05-04T09:31:45.045Z,298.13
2019-05-04T09:32:44.913Z,331.88
2019-05-04T09:33:45.918Z,320.63
2019-05-04T09:34:44.507Z,354.38
2019-05-04T09:35:49.504Z,421.88
2019-05-04T09:36:44.928Z,393.75
2019-05-04T09:37:44.705Z,309.38
2019-05-04T09:38:44.894Z,326.25
2019-05-04T09:39:44.919Z,270.00
2019-05-04T09:40:51.636Z,247.50
2019-05-04T09:41:44.342Z,219.38
2019-05-04T09:42:50.441Z,185.63
2019-05-04T09:43:45.946Z,247.50
2019-05-04T09:44:46.804Z,298.13
2019-05-04T09:45:44.689Z,202.50
2019-05-04T09:46:45.781Z,140.63
2019-05-04T09:47:44.399Z,135.00
2019-05-04T09:48:47.344Z,123.75
2019-05-04T09:49:45.357Z,129.38
2019-05-04T09:50:47.278Z,140.63
2019-05-04T09:51:45.398Z,146.25
2019-05-04T09:52:46.183Z,135.00
2019-05-04T09:53:44.250Z,118.13
2019-05-04T09:54:45.081Z,118.13
2019-05-04T09:55:45.056Z,106.88
2019-05-04T09:56:44.360Z,101.25
2019-05-04T09:57:47.432Z,106.88
2019-05-04T09:58:45.102Z,118.13
2019-05-04T09:59:49.928Z,123.75
2019-05-04T10:00:44.786Z,135.00
2019-05-04T10:01:59.045Z,140.63
2019-05-04T10:02:44.194Z,163.13
2019-05-04T10:03:44.994Z,225.00
2019-05-04T10:04:44.453Z,298.13
2019-05-04T10:05:44.716Z,331.88
2019-05-04T10:06:44.734Z,286.88
2019-05-04T10:07:44.797Z,236.25
2019-05-04T10:08:44.576Z,151.88
2019-05-04T10:09:44.434Z,95.63
2019-05-04T10:10:45.499Z,73.13
2019-05-04T10:11:45.030Z,56.25
2019-05-04T10:12:47.986Z,39.38
2019-05-04T10:13:45.151Z,33.75
2019-05-04T10:14:44.276Z,39.38
2019-05-04T10:15:45.136Z,61.88
2019-05-04T10:16:44.676Z,67.50
2019-05-04T10:17:44.762Z,73.13
2019-05-04T10:18:44.730Z,90.00
2019-05-04T10:19:44.086Z,101.25
2019-05-04T10:20:44.428Z,123.75
2019-05-04T10:21:44.459Z,140.63
2019-05-04T10:22:44.549Z,151.88
2019-05-04T10:23:45.349Z,151.88
2019-05-04T10:24:45.505Z,151.88
2019-05-04T10:25:44.478Z,146.25
2019-05-04T10:26:45.322Z,146.25
2019-05-04T10:27:44.353Z,151.88
2019-05-04T10:28:45.077Z,146.25
2019-05-04T10:29:44.520Z,146.25
2019-05-04T10:30:44.255Z,140.63
2019-05-04T10:31:45.005Z,129.38
2019-05-04T10:32:45.105Z,129.38
2019-05-04T10:33:44.757Z,123.75
2019-05-04T10:34:43.977Z,129.38
2019-05-04T10:35:45.256Z,123.75
2019-05-04T10:36:45.094Z,118.13
2019-05-04T10:37:44.927Z,118.13
2019-05-04T10:38:45.315Z,118.13
2019-05-04T10:39:45.098Z,118.13
2019-05-04T10:40:43.927Z,118.13
2019-05-04T10:41:45.284Z,118.13
2019-05-04T10:42:45.581Z,112.50
2019-05-04T10:43:45.380Z,112.50
2019-05-04T10:44:45.277Z,112.50
2019-05-04T10:45:44.400Z,106.88
2019-05-04T10:46:44.227Z,106.88
2019-05-04T10:47:43.870Z,106.88
2019-05-04T10:48:44.388Z,106.88
2019-05-04T10:49:44.510Z,106.88
2019-05-04T10:50:45.372Z,106.88
2019-05-04T10:51:44.748Z,112.50
2019-05-04T10:52:44.614Z,106.88
2019-05-04T10:53:45.338Z,106.88
2019-05-04T10:54:44.679Z,106.88
2019-05-04T10:55:44.651Z,106.88
2019-05-04T10:56:45.261Z,106.88
2019-05-04T10:57:45.055Z,106.88
2019-05-04T10:58:44.960Z,106.88
2019-05-04T10:59:44.690Z,106.88
2019-05-04T11:00:44.423Z,112.50
2019-05-04T11:01:51.913Z,118.13
2019-05-04T11:02:43.758Z,118.13
2019-05-04T11:03:44.429Z,129.38
2019-05-04T11:04:44.845Z,135.00
2019-05-04T11:05:45.467Z,140.63
2019-05-04T11:06:44.661Z,146.25
2019-05-04T11:07:44.793Z,151.88
2019-05-04T11:08:45.340Z,151.88
2019-05-04T11:09:44.324Z,151.88
2019-05-04T11:10:44.979Z,151.88
2019-05-04T11:11:43.695Z,168.75
2019-05-04T11:12:44.227Z,202.50
2019-05-04T11:13:45.402Z,219.38
2019-05-04T11:14:45.001Z,225.00
2019-05-04T11:15:44.413Z,230.63
2019-05-04T11:16:45.262Z,264.38
2019-05-04T11:17:44.461Z,331.88
2019-05-04T11:18:43.647Z,382.50
2019-05-04T11:19:45.167Z,405.00
2019-05-04T11:20:45.275Z,343.13
2019-05-04T11:21:44.165Z,163.13
2019-05-04T11:22:44.943Z,56.25
2019-05-04T11:23:44.312Z,28.13
2019-05-04T11:24:45.133Z,22.50
2019-05-04T11:25:44.482Z,22.50
2019-05-04T11:26:45.177Z,22.50
2019-05-04T11:27:45.087Z,16.88
2019-05-04T11:28:45.240Z,16.88
2019-05-04T11:29:43.569Z,22.50
2019-05-04T11:30:44.727Z,16.88
2019-05-04T11:31:45.210Z,16.88
2019-05-04T11:32:44.246Z,16.88
2019-05-04T11:33:43.541Z,16.88
2019-05-04T11:34:47.531Z,22.50
2019-05-04T11:35:45.423Z,28.13
2019-05-04T11:36:44.547Z,45.00
2019-05-04T11:37:44.874Z,61.88
2019-05-04T11:38:47.330Z,73.13
2019-05-04T11:39:43.498Z,84.38
2019-05-04T11:40:45.179Z,90.00
2019-05-04T11:41:44.276Z,95.63
2019-05-04T11:42:44.725Z,112.50
2019-05-04T11:43:45.202Z,129.38
2019-05-04T11:44:43.462Z,140.63
2019-05-04T11:45:44.340Z,157.50
2019-05-04T11:46:54.532Z,168.75
2019-05-04T11:47:44.708Z,185.63
2019-05-04T11:48:43.405Z,202.50
2019-05-04T11:49:44.776Z,202.50
2019-05-04T11:50:44.685Z,208.13
2019-05-04T11:51:45.032Z,208.13
2019-05-04T11:52:44.424Z,213.75
2019-05-04T11:53:43.355Z,213.75
2019-05-04T11:54:44.814Z,219.38
2019-05-04T11:55:44.265Z,219.38
2019-05-04T11:56:45.074Z,225.00
2019-05-04T11:57:43.316Z,225.00
2019-05-04T11:58:46.685Z,230.63
2019-05-04T11:59:45.100Z,225.00
2019-05-04T12:00:45.148Z,219.38
2019-05-04T12:01:44.741Z,219.38
2019-05-04T12:02:46.015Z,213.75
2019-05-04T12:03:44.619Z,208.13
2019-05-04T12:04:45.100Z,202.50
2019-05-04T12:05:45.149Z,191.25
2019-05-04T12:06:44.505Z,180.00
2019-05-04T12:07:44.872Z,168.75
2019-05-04T12:08:44.458Z,163.13
2019-05-04T12:09:43.206Z,151.88
2019-05-04T12:10:44.465Z,135.00
2019-05-04T12:11:44.906Z,118.13
2019-05-04T12:12:44.491Z,106.88
2019-05-04T12:13:46.830Z,101.25
2019-05-04T12:14:44.334Z,101.25
2019-05-04T12:15:44.324Z,95.63
2019-05-04T12:16:43.142Z,95.63
2019-05-04T12:17:45.047Z,95.63
2019-05-04T12:18:44.522Z,95.63
2019-05-04T12:19:45.034Z,90.00
2019-05-04T12:20:44.948Z,95.63
2019-05-04T12:21:43.094Z,90.00
2019-05-04T12:22:44.805Z,90.00
2019-05-04T12:23:44.784Z,90.00
2019-05-04T12:24:44.214Z,90.00
2019-05-04T12:25:44.836Z,90.00
2019-05-04T12:26:44.551Z,90.00
2019-05-04T12:27:43.041Z,90.00
2019-05-04T12:28:44.500Z,90.00
2019-05-04T12:29:44.657Z,90.00
2019-05-04T12:30:44.675Z,90.00
2019-05-04T12:31:44.319Z,95.63
2019-05-04T12:32:45.196Z,95.63
2019-05-04T12:33:42.978Z,101.25
2019-05-04T12:34:44.536Z,106.88
2019-05-04T12:35:45.022Z,112.50
2019-05-04T12:36:44.660Z,123.75
2019-05-04T12:37:42.942Z,151.88
2019-05-04T12:38:42.939Z,213.75
2019-05-04T12:39:44.309Z,258.75
2019-05-04T12:40:44.718Z,202.50
2019-05-04T12:41:44.984Z,123.75
2019-05-04T12:42:44.154Z,67.50
2019-05-04T12:43:52.404Z,45.00
2019-05-04T12:44:44.936Z,39.38
2019-05-04T12:45:42.869Z,45.00
2019-05-04T12:46:44.702Z,61.88
2019-05-04T12:47:44.952Z,84.38
2019-05-04T12:48:45.236Z,106.88
2019-05-04T12:49:44.796Z,135.00
2019-05-04T12:50:42.828Z,151.88
2019-05-04T12:51:42.819Z,168.75
2019-05-04T12:52:44.984Z,202.50
2019-05-04T12:53:42.802Z,241.88
2019-05-04T12:54:42.792Z,264.38